sensor_id;sensor_type;location;lat;lon;timestamp;pressure;altitude;pressure_sealevel;temperature;humidity
71476;BME280;59286;59.274;17.974;2023-03-22T00:00:36;100357.44;;;2.52;100.00
71476;BME280;59286;59.274;17.974;2023-03-22T00:03:03;100353.34;;;2.56;100.00
71476;BME280;59286;59.274;17.974;2023-03-22T00:05:28;100341.91;;;2.52;100.00
71476;BME280;59286;59.274;17.974;2023-03-22T00:07:57;100352.06;;;2.58;100.00
71476;BME280;59286;59.274;17.974;2023-03-22T00:10:27;100339.41;;;2.62;100.00
71476;BME280;59286;59.274;17.974;2023-03-22T00:12:55;100334.00;;;2.63;100.00
71476;BME280;59286;59.274;17.974;2023-03-22T00:15:21;100334.78;;;2.64;100.00
71476;BME280;59286;59.274;17.974;2023-03-22T00:17:47;100322.09;;;2.62;100.00
71476;BME280;59286;59.274;17.974;2023-03-22T00:20:14;100322.63;;;2.64;100.00
71476;BME280;59286;59.274;17.974;2023-03-22T00:22:42;100309.94;;;2.63;100.00
71476;BME280;59286;59.274;17.974;2023-03-22T00:25:08;100300.59;;;2.62;100.00
71476;BME280;59286;59.274;17.974;2023-03-22T00:27:33;100302.38;;;2.56;100.00
71476;BME280;59286;59.274;17.974;2023-03-22T00:29:59;100299.06;;;2.61;100.00
71476;BME280;59286;59.274;17.974;2023-03-22T00:32:24;100302.38;;;2.56;100.00
71476;BME280;59286;59.274;17.974;2023-03-22T00:34:50;100290.19;;;2.52;100.00
71476;BME280;59286;59.274;17.974;2023-03-22T00:37:16;100274.66;;;2.52;100.00
71476;BME280;59286;59.274;17.974;2023-03-22T00:39:42;100260.91;;;2.46;100.00
71476;BME280;59286;59.274;17.974;2023-03-22T00:42:07;100260.91;;;2.41;100.00
71476;BME280;59286;59.274;17.974;2023-03-22T00:44:32;100276.25;;;2.53;100.00
71476;BME280;59286;59.274;17.974;2023-03-22T00:46:58;100258.88;;;2.48;100.00
71476;BME280;59286;59.274;17.974;2023-03-22T00:49:23;100249.31;;;2.49;100.00
71476;BME280;59286;59.274;17.974;2023-03-22T00:51:51;100256.59;;;2.57;100.00
71476;BME280;59286;59.274;17.974;2023-03-22T00:54:17;100249.88;;;2.56;100.00
71476;BME280;59286;59.274;17.974;2023-03-22T00:56:42;100239.25;;;2.52;100.00
71476;BME280;59286;59.274;17.974;2023-03-22T00:59:13;100228.34;;;2.45;100.00
71476;BME280;59286;59.274;17.974;2023-03-22T01:01:39;100225.00;;;2.50;100.00
71476;BME280;59286;59.274;17.974;2023-03-22T01:04:05;100230.22;;;2.55;100.00
71476;BME280;59286;59.274;17.974;2023-03-22T01:06:31;100225.28;;;2.53;100.00
71476;BME280;59286;59.274;17.974;2023-03-22T01:08:57;100218.81;;;2.51;100.00
71476;BME280;59286;59.274;17.974;2023-03-22T01:11:23;100204.28;;;2.45;100.00
71476;BME280;59286;59.274;17.974;2023-03-22T01:13:49;100201.69;;;2.45;100.00
71476;BME280;59286;59.274;17.974;2023-03-22T01:16:15;100210.53;;;2.54;100.00
71476;BME280;59286;59.274;17.974;2023-03-22T01:18:41;100206.16;;;2.54;100.00
71476;BME280;59286;59.274;17.974;2023-03-22T01:21:07;100192.16;;;2.50;100.00
71476;BME280;59286;59.274;17.974;2023-03-22T01:23:33;100184.63;;;2.44;100.00
71476;BME280;59286;59.274;17.974;2023-03-22T01:25:59;100179.50;;;2.54;100.00
71476;BME280;59286;59.274;17.974;2023-03-22T01:28:25;100162.63;;;2.46;100.00
71476;BME280;59286;59.274;17.974;2023-03-22T01:30:50;100159.81;;;2.48;100.00
71476;BME280;59286;59.274;17.974;2023-03-22T01:33:16;100160.56;;;2.43;100.00
71476;BME280;59286;59.274;17.974;2023-03-22T01:35:41;100163.44;;;2.52;100.00
71476;BME280;59286;59.274;17.974;2023-03-22T01:38:06;100147.63;;;2.43;100.00
71476;BME280;59286;59.274;17.974;2023-03-22T01:40:32;100147.91;;;2.42;100.00
71476;BME280;59286;59.274;17.974;2023-03-22T01:42:58;100141.69;;;2.43;100.00
71476;BME280;59286;59.274;17.974;2023-03-22T01:45:34;100146.38;;;2.51;100.00
71476;BME280;59286;59.274;17.974;2023-03-22T01:48:04;100137.09;;;2.50;100.00
71476;BME280;59286;59.274;17.974;2023-03-22T01:50:31;100127.47;;;2.45;100.00
71476;BME280;59286;59.274;17.974;2023-03-22T01:52:59;100128.53;;;2.44;100.00
71476;BME280;59286;59.274;17.974;2023-03-22T01:55:26;100125.94;;;2.49;100.00
71476;BME280;59286;59.274;17.974;2023-03-22T01:57:53;100118.94;;;2.45;100.00
71476;BME280;59286;59.274;17.974;2023-03-22T02:00:19;100108.59;;;2.45;100.00
71476;BME280;59286;59.274;17.974;2023-03-22T02:02:47;100108.63;;;2.50;100.00
71476;BME280;59286;59.274;17.974;2023-03-22T02:05:16;100099.56;;;2.47;100.00
71476;BME280;59286;59.274;17.974;2023-03-22T02:07:43;100099.56;;;2.52;100.00
71476;BME280;59286;59.274;17.974;2023-03-22T02:10:22;100101.13;;;2.53;100.00
71476;BME280;59286;59.274;17.974;2023-03-22T02:15:42;100068.47;;;2.37;100.00
71476;BME280;59286;59.274;17.974;2023-03-22T02:18:24;100079.13;;;2.46;100.00
71476;BME280;59286;59.274;17.974;2023-03-22T02:26:59;100070.59;;;2.50;100.00
71476;BME280;59286;59.274;17.974;2023-03-22T02:43:33;100032.59;;;2.56;100.00
71476;BME280;59286;59.274;17.974;2023-03-22T02:51:42;100022.75;;;2.58;100.00
71476;BME280;59286;59.274;17.974;2023-03-22T02:54:12;100007.50;;;2.56;100.00
71476;BME280;59286;59.274;17.974;2023-03-22T02:56:55;100004.41;;;2.59;100.00
71476;BME280;59286;59.274;17.974;2023-03-22T02:59:25;100006.75;;;2.66;100.00
71476;BME280;59286;59.274;17.974;2023-03-22T03:01:55;100002.59;;;2.65;100.00
71476;BME280;59286;59.274;17.974;2023-03-22T03:04:29;99995.13;;;2.68;100.00
71476;BME280;59286;59.274;17.974;2023-03-22T03:07:07;99986.84;;;2.66;100.00
71476;BME280;59286;59.274;17.974;2023-03-22T03:09:34;99995.13;;;2.73;100.00
71476;BME280;59286;59.274;17.974;2023-03-22T03:12:01;99978.81;;;2.73;100.00
71476;BME280;59286;59.274;17.974;2023-03-22T03:14:30;99976.22;;;2.73;100.00
71476;BME280;59286;59.274;17.974;2023-03-22T03:20:15;99977.00;;;2.83;100.00
71476;BME280;59286;59.274;17.974;2023-03-22T03:28:34;99963.31;;;2.83;100.00
71476;BME280;59286;59.274;17.974;2023-03-22T03:31:09;99957.06;;;2.84;100.00
71476;BME280;59286;59.274;17.974;2023-03-22T03:33:43;99938.44;;;2.82;100.00
71476;BME280;59286;59.274;17.974;2023-03-22T03:36:14;99948.03;;;2.91;100.00
71476;BME280;59286;59.274;17.974;2023-03-22T03:38:45;99938.44;;;2.92;100.00
71476;BME280;59286;59.274;17.974;2023-03-22T03:41:14;99927.06;;;2.88;100.00
71476;BME280;59286;59.274;17.974;2023-03-22T03:43:42;99910.50;;;2.84;100.00
71476;BME280;59286;59.274;17.974;2023-03-22T03:46:09;99914.66;;;2.90;100.00
71476;BME280;59286;59.274;17.974;2023-03-22T03:48:36;99921.91;;;2.98;100.00
71476;BME280;59286;59.274;17.974;2023-03-22T03:51:03;99913.34;;;2.97;100.00
71476;BME280;59286;59.274;17.974;2023-03-22T03:53:29;99905.34;;;2.94;100.00
71476;BME280;59286;59.274;17.974;2023-03-22T03:55:55;99899.63;;;2.97;100.00
71476;BME280;59286;59.274;17.974;2023-03-22T03:58:20;99903.75;;;3.03;100.00
71476;BME280;59286;59.274;17.974;2023-03-22T04:00:46;99891.59;;;3.04;100.00
71476;BME280;59286;59.274;17.974;2023-03-22T04:03:12;99916.94;;;3.12;100.00
71476;BME280;59286;59.274;17.974;2023-03-22T04:05:38;99896.22;;;3.12;100.00
71476;BME280;59286;59.274;17.974;2023-03-22T04:08:04;99896.25;;;3.17;100.00
71476;BME280;59286;59.274;17.974;2023-03-22T04:10:29;99894.91;;;3.19;100.00
71476;BME280;59286;59.274;17.974;2023-03-22T04:12:55;99885.34;;;3.20;100.00
71476;BME280;59286;59.274;17.974;2023-03-22T04:15:20;99888.69;;;3.25;100.00
71476;BME280;59286;59.274;17.974;2023-03-22T04:17:46;99875.75;;;3.25;100.00
71476;BME280;59286;59.274;17.974;2023-03-22T04:20:12;99873.69;;;3.27;100.00
71476;BME280;59286;59.274;17.974;2023-03-22T04:22:39;99876.00;;;3.34;100.00
71476;BME280;59286;59.274;17.974;2023-03-22T04:25:06;99869.78;;;3.35;100.00
71476;BME280;59286;59.274;17.974;2023-03-22T04:27:37;99863.81;;;3.39;100.00
71476;BME280;59286;59.274;17.974;2023-03-22T04:30:03;99841.03;;;3.31;100.00
71476;BME280;59286;59.274;17.974;2023-03-22T04:32:29;99862.22;;;3.43;100.00
71476;BME280;59286;59.274;17.974;2023-03-22T04:34:54;99849.81;;;3.40;100.00
71476;BME280;59286;59.274;17.974;2023-03-22T04:37:20;99842.56;;;3.32;100.00
71476;BME280;59286;59.274;17.974;2023-03-22T04:39:48;99837.91;;;3.34;100.00
71476;BME280;59286;59.274;17.974;2023-03-22T04:42:14;99828.09;;;3.31;100.00
71476;BME280;59286;59.274;17.974;2023-03-22T04:44:39;99843.31;;;3.38;100.00
71476;BME280;59286;59.274;17.974;2023-03-22T04:47:05;99825.97;;;3.38;100.00
71476;BME280;59286;59.274;17.974;2023-03-22T04:49:30;99824.97;;;3.39;100.00
71476;BME280;59286;59.274;17.974;2023-03-22T04:51:56;99831.41;;;3.47;100.00
71476;BME280;59286;59.274;17.974;2023-03-22T04:54:22;99830.63;;;3.46;100.00
71476;BME280;59286;59.274;17.974;2023-03-22T04:56:47;99823.88;;;3.45;100.00
71476;BME280;59286;59.274;17.974;2023-03-22T04:59:13;99819.25;;;3.42;100.00
71476;BME280;59286;59.274;17.974;2023-03-22T05:01:38;99819.72;;;3.49;100.00
71476;BME280;59286;59.274;17.974;2023-03-22T05:04:06;99819.19;;;3.52;100.00
71476;BME280;59286;59.274;17.974;2023-03-22T05:06:31;99818.66;;;3.55;100.00
71476;BME280;59286;59.274;17.974;2023-03-22T05:08:59;99822.53;;;3.53;100.00
71476;BME280;59286;59.274;17.974;2023-03-22T05:11:25;99816.31;;;3.59;100.00
71476;BME280;59286;59.274;17.974;2023-03-22T05:13:55;99802.88;;;3.52;100.00
71476;BME280;59286;59.274;17.974;2023-03-22T05:16:22;99795.38;;;3.50;100.00
71476;BME280;59286;59.274;17.974;2023-03-22T05:18:48;99802.81;;;3.62;100.00
71476;BME280;59286;59.274;17.974;2023-03-22T05:21:19;99801.47;;;3.69;100.00
71476;BME280;59286;59.274;17.974;2023-03-22T05:23:47;99792.72;;;3.65;100.00
71476;BME280;59286;59.274;17.974;2023-03-22T05:26:14;99787.53;;;3.65;100.00
71476;BME280;59286;59.274;17.974;2023-03-22T05:28:40;99791.63;;;3.71;100.00
71476;BME280;59286;59.274;17.974;2023-03-22T05:31:06;99783.59;;;3.73;100.00
71476;BME280;59286;59.274;17.974;2023-03-22T05:33:32;99784.84;;;3.75;100.00
71476;BME280;59286;59.274;17.974;2023-03-22T05:35:59;99774.50;;;3.75;100.00
71476;BME280;59286;59.274;17.974;2023-03-22T05:38:24;99772.41;;;3.77;100.00
71476;BME280;59286;59.274;17.974;2023-03-22T05:40:50;99769.81;;;3.77;100.00
71476;BME280;59286;59.274;17.974;2023-03-22T05:43:15;99767.19;;;3.82;100.00
71476;BME280;59286;59.274;17.974;2023-03-22T05:45:41;99764.63;;;3.77;100.00
71476;BME280;59286;59.274;17.974;2023-03-22T05:48:07;99761.25;;;3.82;100.00
71476;BME280;59286;59.274;17.974;2023-03-22T05:50:32;99752.19;;;3.79;100.00
71476;BME280;59286;59.274;17.974;2023-03-22T05:52:58;99746.44;;;3.82;100.00
71476;BME280;59286;59.274;17.974;2023-03-22T05:55:25;99749.75;;;3.93;100.00
71476;BME280;59286;59.274;17.974;2023-03-22T05:57:50;99757.75;;;3.97;100.00
71476;BME280;59286;59.274;17.974;2023-03-22T06:00:18;99761.09;;;4.02;100.00
71476;BME280;59286;59.274;17.974;2023-03-22T06:02:46;99747.84;;;4.04;100.00
71476;BME280;59286;59.274;17.974;2023-03-22T06:05:13;99756.28;;;4.19;100.00
71476;BME280;59286;59.274;17.974;2023-03-22T06:07:40;99745.13;;;4.19;100.00
71476;BME280;59286;59.274;17.974;2023-03-22T06:10:07;99743.03;;;4.21;100.00
71476;BME280;59286;59.274;17.974;2023-03-22T06:12:33;99738.09;;;4.24;100.00
71476;BME280;59286;59.274;17.974;2023-03-22T06:14:59;99751.78;;;4.30;100.00
71476;BME280;59286;59.274;17.974;2023-03-22T06:17:24;99738.31;;;4.28;100.00
71476;BME280;59286;59.274;17.974;2023-03-22T06:19:50;99746.03;;;4.33;100.00
71476;BME280;59286;59.274;17.974;2023-03-22T06:22:17;99745.72;;;4.39;100.00
71476;BME280;59286;59.274;17.974;2023-03-22T06:24:42;99742.84;;;4.41;100.00
71476;BME280;59286;59.274;17.974;2023-03-22T06:27:08;99744.94;;;4.39;100.00
71476;BME280;59286;59.274;17.974;2023-03-22T06:29:33;99735.13;;;4.36;100.00
71476;BME280;59286;59.274;17.974;2023-03-22T06:31:59;99738.75;;;4.35;100.00
71476;BME280;59286;59.274;17.974;2023-03-22T06:34:25;99731.94;;;4.44;100.00
71476;BME280;59286;59.274;17.974;2023-03-22T06:36:51;99734.47;;;4.49;100.00
71476;BME280;59286;59.274;17.974;2023-03-22T06:39:18;99732.81;;;4.58;100.00
71476;BME280;59286;59.274;17.974;2023-03-22T06:41:43;99723.97;;;4.59;100.00
71476;BME280;59286;59.274;17.974;2023-03-22T06:44:09;99732.72;;;4.68;100.00
71476;BME280;59286;59.274;17.974;2023-03-22T06:46:34;99719.75;;;4.68;100.00
71476;BME280;59286;59.274;17.974;2023-03-22T06:49:00;99722.28;;;4.73;100.00
71476;BME280;59286;59.274;17.974;2023-03-22T06:51:25;99728.97;;;4.79;100.00
71476;BME280;59286;59.274;17.974;2023-03-22T06:53:50;99715.03;;;4.70;100.00
71476;BME280;59286;59.274;17.974;2023-03-22T06:56:16;99727.97;;;4.75;100.00
71476;BME280;59286;59.274;17.974;2023-03-22T06:58:41;99721.69;;;4.81;100.00
71476;BME280;59286;59.274;17.974;2023-03-22T07:01:07;99712.63;;;4.78;100.00
71476;BME280;59286;59.274;17.974;2023-03-22T07:03:32;99714.84;;;4.85;100.00
71476;BME280;59286;59.274;17.974;2023-03-22T07:06:05;99713.75;;;4.91;100.00
71476;BME280;59286;59.274;17.974;2023-03-22T07:08:31;99704.88;;;4.97;100.00
71476;BME280;59286;59.274;17.974;2023-03-22T07:10:57;99708.66;;;5.05;100.00
71476;BME280;59286;59.274;17.974;2023-03-22T07:13:22;99708.44;;;5.01;100.00
71476;BME280;59286;59.274;17.974;2023-03-22T07:15:48;99717.44;;;5.09;100.00
71476;BME280;59286;59.274;17.974;2023-03-22T07:18:13;99715.00;;;5.17;100.00
71476;BME280;59286;59.274;17.974;2023-03-22T07:20:39;99707.19;;;5.17;100.00
71476;BME280;59286;59.274;17.974;2023-03-22T07:23:06;99708.19;;;5.21;100.00
71476;BME280;59286;59.274;17.974;2023-03-22T07:25:32;99703.13;;;5.30;100.00
71476;BME280;59286;59.274;17.974;2023-03-22T07:27:59;99706.88;;;5.42;100.00
71476;BME280;59286;59.274;17.974;2023-03-22T07:30:24;99697.66;;;5.50;100.00
71476;BME280;59286;59.274;17.974;2023-03-22T07:32:50;99696.50;;;5.56;100.00
71476;BME280;59286;59.274;17.974;2023-03-22T07:35:15;99700.59;;;5.62;100.00
71476;BME280;59286;59.274;17.974;2023-03-22T07:37:41;99689.16;;;5.63;100.00
71476;BME280;59286;59.274;17.974;2023-03-22T07:40:06;99694.31;;;5.81;100.00
71476;BME280;59286;59.274;17.974;2023-03-22T07:42:32;99686.31;;;5.78;100.00
71476;BME280;59286;59.274;17.974;2023-03-22T07:44:58;99690.66;;;5.82;100.00
71476;BME280;59286;59.274;17.974;2023-03-22T07:47:24;99687.50;;;5.85;100.00
71476;BME280;59286;59.274;17.974;2023-03-22T07:49:50;99675.75;;;5.88;100.00
71476;BME280;59286;59.274;17.974;2023-03-22T07:52:16;99666.69;;;5.85;100.00
71476;BME280;59286;59.274;17.974;2023-03-22T07:54:41;99679.94;;;6.03;100.00
71476;BME280;59286;59.274;17.974;2023-03-22T07:57:07;99665.69;;;6.00;100.00
71476;BME280;59286;59.274;17.974;2023-03-22T07:59:32;99674.72;;;6.03;100.00
71476;BME280;59286;59.274;17.974;2023-03-22T08:01:58;99669.66;;;6.11;100.00
71476;BME280;59286;59.274;17.974;2023-03-22T08:04:23;99685.94;;;6.17;100.00
71476;BME280;59286;59.274;17.974;2023-03-22T08:06:49;99676.88;;;6.14;100.00
71476;BME280;59286;59.274;17.974;2023-03-22T08:09:15;99671.47;;;6.11;100.00
71476;BME280;59286;59.274;17.974;2023-03-22T08:11:41;99654.34;;;6.10;100.00
71476;BME280;59286;59.274;17.974;2023-03-22T08:14:06;99667.34;;;6.23;100.00
71476;BME280;59286;59.274;17.974;2023-03-22T08:16:33;99667.94;;;6.20;100.00
71476;BME280;59286;59.274;17.974;2023-03-22T08:18:58;99656.19;;;6.23;100.00
71476;BME280;59286;59.274;17.974;2023-03-22T08:21:24;99661.28;;;6.28;100.00
71476;BME280;59286;59.274;17.974;2023-03-22T08:23:49;99655.22;;;6.19;100.00
71476;BME280;59286;59.274;17.974;2023-03-22T08:26:14;99656.25;;;6.18;100.00
71476;BME280;59286;59.274;17.974;2023-03-22T08:28:40;99661.47;;;6.18;100.00
71476;BME280;59286;59.274;17.974;2023-03-22T08:31:13;99662.25;;;6.18;100.00
71476;BME280;59286;59.274;17.974;2023-03-22T08:33:39;99652.41;;;6.15;100.00
71476;BME280;59286;59.274;17.974;2023-03-22T08:36:07;99652.03;;;6.22;100.00
71476;BME280;59286;59.274;17.974;2023-03-22T08:38:33;99655.59;;;6.26;100.00
71476;BME280;59286;59.274;17.974;2023-03-22T08:40:58;99654.03;;;6.25;100.00
71476;BME280;59286;59.274;17.974;2023-03-22T08:43:23;99639.50;;;6.24;100.00
71476;BME280;59286;59.274;17.974;2023-03-22T08:45:49;99633.94;;;6.30;100.00
71476;BME280;59286;59.274;17.974;2023-03-22T08:48:14;99633.03;;;6.35;100.00
71476;BME280;59286;59.274;17.974;2023-03-22T08:50:40;99630.16;;;6.50;100.00
71476;BME280;59286;59.274;17.974;2023-03-22T08:53:05;99634.16;;;6.69;100.00
71476;BME280;59286;59.274;17.974;2023-03-22T08:55:30;99633.09;;;6.84;100.00
71476;BME280;59286;59.274;17.974;2023-03-22T08:58:00;99639.03;;;6.98;100.00
71476;BME280;59286;59.274;17.974;2023-03-22T09:00:25;99636.06;;;7.05;100.00
71476;BME280;59286;59.274;17.974;2023-03-22T09:02:51;99640.00;;;7.02;100.00
71476;BME280;59286;59.274;17.974;2023-03-22T09:05:17;99637.28;;;7.07;100.00
71476;BME280;59286;59.274;17.974;2023-03-22T09:07:42;99642.56;;;7.16;100.00
71476;BME280;59286;59.274;17.974;2023-03-22T09:10:10;99638.59;;;7.18;99.93
71476;BME280;59286;59.274;17.974;2023-03-22T09:12:36;99628.16;;;7.18;100.00
71476;BME280;59286;59.274;17.974;2023-03-22T09:15:02;99623.09;;;7.13;99.67
71476;BME280;59286;59.274;17.974;2023-03-22T09:17:27;99623.38;;;7.12;100.00
71476;BME280;59286;59.274;17.974;2023-03-22T09:19:52;99624.25;;;7.07;100.00
71476;BME280;59286;59.274;17.974;2023-03-22T09:22:18;99621.34;;;7.09;100.00
71476;BME280;59286;59.274;17.974;2023-03-22T09:24:43;99617.38;;;7.11;100.00
71476;BME280;59286;59.274;17.974;2023-03-22T09:27:09;99622.38;;;7.21;100.00
71476;BME280;59286;59.274;17.974;2023-03-22T09:29:34;99616.53;;;7.38;100.00
71476;BME280;59286;59.274;17.974;2023-03-22T09:32:00;99613.63;;;7.39;100.00
71476;BME280;59286;59.274;17.974;2023-03-22T09:34:25;99609.81;;;7.45;100.00
71476;BME280;59286;59.274;17.974;2023-03-22T09:36:51;99613.03;;;7.64;99.18
71476;BME280;59286;59.274;17.974;2023-03-22T09:39:18;99602.31;;;7.74;98.70
71476;BME280;59286;59.274;17.974;2023-03-22T09:41:47;99587.13;;;7.76;98.18
71476;BME280;59286;59.274;17.974;2023-03-22T09:44:38;99593.06;;;7.91;99.56
71476;BME280;59286;59.274;17.974;2023-03-22T09:47:09;99585.09;;;8.04;98.57
71476;BME280;59286;59.274;17.974;2023-03-22T09:49:39;99584.69;;;8.19;98.97
71476;BME280;59286;59.274;17.974;2023-03-22T09:52:12;99583.69;;;8.37;98.31
71476;BME280;59286;59.274;17.974;2023-03-22T09:54:40;99580.03;;;8.47;97.83
71476;BME280;59286;59.274;17.974;2023-03-22T09:57:26;99578.03;;;8.52;96.99
71476;BME280;59286;59.274;17.974;2023-03-22T09:59:57;99577.59;;;8.59;96.06
71476;BME280;59286;59.274;17.974;2023-03-22T10:02:58;99573.16;;;8.68;95.84
71476;BME280;59286;59.274;17.974;2023-03-22T10:05:30;99571.78;;;8.79;95.29
71476;BME280;59286;59.274;17.974;2023-03-22T10:16:44;99560.25;;;8.71;94.35
71476;BME280;59286;59.274;17.974;2023-03-22T10:19:18;99568.88;;;8.72;93.99
71476;BME280;59286;59.274;17.974;2023-03-22T10:21:45;99569.63;;;8.64;94.73
71476;BME280;59286;59.274;17.974;2023-03-22T10:24:17;99569.00;;;8.58;95.04
71476;BME280;59286;59.274;17.974;2023-03-22T10:26:45;99567.59;;;8.44;95.11
71476;BME280;59286;59.274;17.974;2023-03-22T10:29:16;99562.53;;;8.47;94.74
71476;BME280;59286;59.274;17.974;2023-03-22T10:31:46;99565.72;;;8.36;94.94
71476;BME280;59286;59.274;17.974;2023-03-22T10:34:26;99578.19;;;8.39;95.17
71476;BME280;59286;59.274;17.974;2023-03-22T10:36:55;99574.81;;;8.47;95.61
71476;BME280;59286;59.274;17.974;2023-03-22T10:39:31;99569.59;;;8.47;94.45
71476;BME280;59286;59.274;17.974;2023-03-22T10:42:09;99567.13;;;8.42;93.93
71476;BME280;59286;59.274;17.974;2023-03-22T10:44:53;99572.66;;;8.40;95.64
71476;BME280;59286;59.274;17.974;2023-03-22T10:47:28;99565.44;;;8.54;95.66
71476;BME280;59286;59.274;17.974;2023-03-22T10:49:55;99575.31;;;8.66;94.72
71476;BME280;59286;59.274;17.974;2023-03-22T10:52:38;99561.19;;;8.67;94.36
71476;BME280;59286;59.274;17.974;2023-03-22T10:55:12;99559.66;;;8.74;93.65
71476;BME280;59286;59.274;17.974;2023-03-22T10:57:37;99551.03;;;8.65;94.56
71476;BME280;59286;59.274;17.974;2023-03-22T11:00:05;99551.97;;;8.61;94.74
71476;BME280;59286;59.274;17.974;2023-03-22T11:02:52;99543.50;;;8.64;94.47
71476;BME280;59286;59.274;17.974;2023-03-22T11:05:25;99543.81;;;8.54;94.09
71476;BME280;59286;59.274;17.974;2023-03-22T11:07:51;99551.94;;;8.52;94.59
71476;BME280;59286;59.274;17.974;2023-03-22T11:10:21;99548.13;;;8.67;94.98
71476;BME280;59286;59.274;17.974;2023-03-22T11:12:51;99540.88;;;8.64;94.30
71476;BME280;59286;59.274;17.974;2023-03-22T11:15:24;99548.88;;;8.59;94.09
71476;BME280;59286;59.274;17.974;2023-03-22T11:17:53;99547.94;;;8.46;95.12
71476;BME280;59286;59.274;17.974;2023-03-22T11:20:23;99547.78;;;8.51;94.58
71476;BME280;59286;59.274;17.974;2023-03-22T11:22:49;99542.56;;;8.60;94.55
71476;BME280;59286;59.274;17.974;2023-03-22T11:25:26;99550.28;;;8.65;94.28
71476;BME280;59286;59.274;17.974;2023-03-22T11:27:55;99542.25;;;8.53;94.60
71476;BME280;59286;59.274;17.974;2023-03-22T11:30:26;99535.50;;;8.52;95.35
71476;BME280;59286;59.274;17.974;2023-03-22T11:33:21;99535.50;;;8.69;94.43
71476;BME280;59286;59.274;17.974;2023-03-22T11:36:01;99524.47;;;8.89;93.99
71476;BME280;59286;59.274;17.974;2023-03-22T11:38:38;99533.81;;;8.90;93.76
71476;BME280;59286;59.274;17.974;2023-03-22T11:41:12;99525.81;;;9.04;93.33
71476;BME280;59286;59.274;17.974;2023-03-22T11:43:50;99519.50;;;9.13;94.14
71476;BME280;59286;59.274;17.974;2023-03-22T11:46:17;99515.59;;;9.36;93.51
71476;BME280;59286;59.274;17.974;2023-03-22T11:48:45;99520.19;;;9.48;92.38
71476;BME280;59286;59.274;17.974;2023-03-22T11:51:15;99509.84;;;9.51;92.59
71476;BME280;59286;59.274;17.974;2023-03-22T11:53:43;99508.75;;;9.61;92.64
71476;BME280;59286;59.274;17.974;2023-03-22T11:56:15;99511.78;;;9.71;91.24
71476;BME280;59286;59.274;17.974;2023-03-22T12:01:10;99497.63;;;9.72;90.21
71476;BME280;59286;59.274;17.974;2023-03-22T12:03:39;99501.00;;;9.73;91.12
71476;BME280;59286;59.274;17.974;2023-03-22T12:06:21;99498.84;;;9.75;90.70
71476;BME280;59286;59.274;17.974;2023-03-22T12:08:53;99504.22;;;9.78;90.72
71476;BME280;59286;59.274;17.974;2023-03-22T12:11:27;99493.88;;;9.82;90.35
71476;BME280;59286;59.274;17.974;2023-03-22T12:13:59;99495.41;;;9.83;90.78
71476;BME280;59286;59.274;17.974;2023-03-22T12:16:55;99486.75;;;9.91;90.13
71476;BME280;59286;59.274;17.974;2023-03-22T12:21:51;99488.16;;;9.89;89.47
71476;BME280;59286;59.274;17.974;2023-03-22T12:24:30;99483.28;;;9.78;89.07
71476;BME280;59286;59.274;17.974;2023-03-22T12:27:07;99479.94;;;9.69;89.70
71476;BME280;59286;59.274;17.974;2023-03-22T12:29:35;99475.00;;;9.68;90.63
71476;BME280;59286;59.274;17.974;2023-03-22T12:32:14;99468.38;;;9.70;90.32
71476;BME280;59286;59.274;17.974;2023-03-22T12:34:45;99471.53;;;9.85;90.57
71476;BME280;59286;59.274;17.974;2023-03-22T12:37:20;99476.16;;;9.88;89.18
71476;BME280;59286;59.274;17.974;2023-03-22T12:39:53;99478.22;;;9.73;89.48
71476;BME280;59286;59.274;17.974;2023-03-22T12:42:23;99467.63;;;9.70;90.16
71476;BME280;59286;59.274;17.974;2023-03-22T12:44:56;99463.88;;;9.79;90.03
71476;BME280;59286;59.274;17.974;2023-03-22T12:47:34;99466.94;;;9.82;89.95
71476;BME280;59286;59.274;17.974;2023-03-22T12:50:12;99465.44;;;9.81;89.32
71476;BME280;59286;59.274;17.974;2023-03-22T12:52:45;99469.78;;;9.68;89.89
71476;BME280;59286;59.274;17.974;2023-03-22T12:55:22;99451.16;;;9.69;90.16
71476;BME280;59286;59.274;17.974;2023-03-22T12:57:49;99448.72;;;9.64;89.75
71476;BME280;59286;59.274;17.974;2023-03-22T13:00:21;99450.59;;;9.64;90.52
71476;BME280;59286;59.274;17.974;2023-03-22T13:05:40;99436.72;;;9.63;89.80
71476;BME280;59286;59.274;17.974;2023-03-22T13:08:05;99440.47;;;9.54;89.85
71476;BME280;59286;59.274;17.974;2023-03-22T13:15:34;99430.59;;;9.59;90.85
71476;BME280;59286;59.274;17.974;2023-03-22T13:18:00;99429.34;;;9.57;91.24
71476;BME280;59286;59.274;17.974;2023-03-22T13:20:27;99417.63;;;9.63;91.65
71476;BME280;59286;59.274;17.974;2023-03-22T13:22:59;99424.69;;;9.71;90.72
71476;BME280;59286;59.274;17.974;2023-03-22T13:25:29;99423.25;;;9.73;90.58
71476;BME280;59286;59.274;17.974;2023-03-22T13:27:59;99412.00;;;9.82;90.97
71476;BME280;59286;59.274;17.974;2023-03-22T13:30:52;99405.28;;;9.93;90.45
71476;BME280;59286;59.274;17.974;2023-03-22T13:33:33;99406.91;;;10.06;89.69
71476;BME280;59286;59.274;17.974;2023-03-22T13:36:05;99395.63;;;10.14;89.55
71476;BME280;59286;59.274;17.974;2023-03-22T13:38:34;99393.81;;;10.26;88.26
71476;BME280;59286;59.274;17.974;2023-03-22T13:43:48;99389.28;;;10.35;87.14
71476;BME280;59286;59.274;17.974;2023-03-22T13:54:02;99389.94;;;10.32;86.27
71476;BME280;59286;59.274;17.974;2023-03-22T14:04:52;99374.91;;;9.79;87.24
71476;BME280;59286;59.274;17.974;2023-03-22T14:07:35;99374.13;;;9.79;87.46
71476;BME280;59286;59.274;17.974;2023-03-22T14:10:16;99371.47;;;9.88;88.01
71476;BME280;59286;59.274;17.974;2023-03-22T14:12:52;99366.22;;;9.88;88.06
71476;BME280;59286;59.274;17.974;2023-03-22T14:15:25;99363.75;;;9.91;87.38